Brjansk, Russia
Current Conditions -  °F | °C
As of 11:00 PM on Friday 28 Nov 2014 (Local Time) from UUOK Reporting Station
Light Snow Light Snow  
Wind Chill: 12°   Ceiling: 700
Heat Index: 23°   Visibility: 4mi
Dew Point: 19°   Wind: 11mph
Humidity: 86%   Direction: 80°E
Pressure: 30.48"   Gusts: NA
Location:  53.26°N, 34.42°E
Report Text: UUOK 282000Z 08005MPS 6000 -SN OVC007 M05/M07 Q1032 NOSIG RMK12490235
Loading
Personal Weather Stations






























Interactive Weather Map New forecast layout! Learn more

10-Day Weather Forecast

Advertisements
Track Severe Weather on mobile